Nearby METAR Reports

 

NZAA - Auckland Intl Ar, New Zealand
Distance from station: SW 18km
Updated: 23/06/2021 11:00
Clear
Clear
 Wind from S
Wind: S 7 km/h
Temperature: 11°C
Dew Point: 7°C
Humidity: 77%
Barometer: 1024 hPa
Clouds: Clear
Visibility: 10 km
2021/06/22 23:00 NZAA 222300Z AUTO 18004KT 150V210 9999 NCD 11/07 Q1024 NOSIG
NZWN - Wellington Intl, New Zealand
Distance from station: S 493km
Updated: 23/06/2021 11:00
Overcast
Overcast
 Wind from S
Wind: S 26 km/h
Temperature: 12°C
Dew Point: 5°C
Humidity: 63%
Barometer: 1025 hPa
Clouds: Overcast
Visibility: 10 km
Cloud details: Overcast 1158 m
2021/06/22 23:00 NZWN 222300Z AUTO 18014KT 9999 OVC038/// 12/05 Q1025 NOSIG
 
NZCH - Christchurch Int, New Zealand
Distance from station: SSW 759km
Updated: 23/06/2021 11:00
Mostly cloudy
Mostly cloudy
 Wind from SSW
Wind: SSW 9 km/h
Temperature: 9°C
Wind Chill: 7°C
Dew Point: 7°C
Humidity: 87%
Barometer: 1025 hPa
Clouds: Mostly cloudy
Visibility: 10 km
Cloud details: Mostly cloudy 823 m
2021/06/22 23:00 NZCH 222300Z AUTO 20005KT 170V230 9999 BKN027/// 09/07 Q1025 NOSIG
YSNF - Norfolk Island A, Australia
Distance from station: NW 1091km
Updated: 23/06/2021 11:00
Overcast
Overcast
 Wind from S
Wind: S 19 km/h
Temperature: 18°C
Dew Point: 11°C
Humidity: 64%
Barometer: 1026 hPa
Clouds: Overcast
Visibility: 10 km
Cloud details: Partly cloudy 1311 m
Overcast 1524 m
2021/06/22 23:00 YSNF 222300Z AUTO 18010KT 9999 // SCT043 OVC050 18/11 Q1026